createdAt,value
2023-05-25T00:04:54.059Z,4.06
2023-05-25T00:08:57.513Z,4.06
2023-05-25T00:15:01.973Z,4.06
2023-05-25T00:19:04.907Z,4.06
2023-05-25T00:21:05.993Z,4.06
2023-05-25T00:25:08.655Z,4.06
2023-05-25T00:29:11.400Z,4.06
2023-05-25T00:31:12.907Z,4.06
2023-05-25T00:35:16.004Z,4.06
2023-05-25T00:41:20.350Z,4.06
2023-05-25T00:47:25.108Z,4.06
2023-05-25T00:51:27.834Z,4.06
2023-05-25T00:57:32.755Z,4.06
2023-05-25T01:01:35.945Z,4.05
2023-05-25T01:03:37.451Z,4.05
2023-05-25T01:07:40.110Z,4.05
2023-05-25T01:11:43.605Z,4.05
2023-05-25T01:12:27.473Z,4.05
2023-05-25T01:16:30.803Z,4.05
2023-05-25T01:18:31.808Z,4.05
2023-05-25T01:22:34.750Z,4.05
2023-05-25T01:24:36.333Z,4.05
2023-05-25T01:26:38.129Z,4.05
2023-05-25T01:28:39.500Z,4.05
2023-05-25T01:34:51.508Z,4.04
2023-05-25T01:36:44.956Z,4.05
2023-05-25T01:40:47.634Z,4.05
2023-05-25T01:44:50.644Z,4.05
2023-05-25T01:50:55.049Z,4.04
2023-05-25T01:54:57.870Z,4.04
2023-05-25T01:56:59.775Z,4.04
2023-05-25T02:01:02.609Z,4.04
2023-05-25T02:05:06.050Z,4.04
2023-05-25T02:07:07.153Z,4.04
2023-05-25T02:11:10.518Z,4.04
2023-05-25T02:17:15.087Z,4.04
2023-05-25T02:23:19.588Z,4.04
2023-05-25T02:27:23.167Z,4.04
2023-05-25T02:33:27.475Z,4.04
2023-05-25T02:37:31.070Z,4.04
2023-05-25T02:39:32.103Z,4.04
2023-05-25T02:43:35.128Z,4.04
2023-05-25T02:47:38.544Z,4.04
2023-05-25T02:49:40.189Z,4.04
2023-05-25T02:53:43.197Z,4.04
2023-05-25T02:59:47.739Z,4.04
2023-05-25T03:05:52.810Z,4.03
2023-05-25T03:09:55.913Z,4.03
2023-05-25T03:16:00.721Z,4.03
2023-05-25T03:20:04.027Z,4.04
2023-05-25T03:22:05.214Z,4.03
2023-05-25T03:26:08.321Z,4.04
2023-05-25T03:30:11.633Z,4.03
2023-05-25T03:32:12.828Z,4.03
2023-05-25T03:36:16.129Z,4.03
2023-05-25T03:42:20.405Z,4.03
2023-05-25T03:48:24.742Z,4.03
2023-05-25T03:52:27.987Z,4.03
2023-05-25T03:58:31.962Z,4.03
2023-05-25T04:00:33.518Z,4.03
2023-05-25T04:02:34.560Z,4.03
2023-05-25T04:04:35.550Z,4.02
2023-05-25T04:08:38.462Z,4.03
2023-05-25T04:12:41.068Z,4.02
2023-05-25T04:14:42.214Z,4.03
2023-05-25T04:18:45.139Z,4.02
2023-05-25T04:24:49.315Z,4.02
2023-05-25T04:30:53.251Z,4.02
2023-05-25T04:34:56.413Z,4.02
2023-05-25T04:41:00.532Z,4.02
2023-05-25T04:45:03.930Z,4.02
2023-05-25T04:47:05.449Z,4.02
2023-05-25T04:51:07.740Z,4.02
2023-05-25T04:55:10.813Z,4.02
2023-05-25T04:57:11.964Z,4.02
2023-05-25T05:01:15.396Z,4.02
2023-05-25T05:05:18.122Z,4.02
2023-05-25T05:07:19.388Z,4.02
2023-05-25T05:11:21.695Z,4.02
2023-05-25T05:13:22.889Z,4.02
2023-05-25T05:15:24.234Z,4.03
2023-05-25T05:17:25.642Z,4.03
2023-05-25T05:23:29.991Z,4.04
2023-05-25T05:25:31.176Z,4.04
2023-05-25T05:29:33.288Z,4.04
2023-05-25T05:33:35.382Z,4.04
2023-05-25T05:39:39.249Z,4.05
2023-05-25T05:41:40.801Z,4.06
2023-05-25T05:45:44.277Z,4.06
2023-05-25T05:49:46.699Z,4.06
2023-05-25T05:53:49.347Z,4.07
2023-05-25T05:55:53.010Z,4.07
2023-05-25T05:59:53.316Z,4.08
2023-05-25T06:05:57.306Z,4.09
2023-05-25T06:12:01.093Z,4.11
2023-05-25T06:16:04.283Z,4.12
2023-05-25T06:22:08.189Z,4.12
2023-05-25T06:26:10.654Z,4.14
2023-05-25T06:28:11.955Z,4.13
2023-05-25T06:32:15.282Z,4.14
2023-05-25T06:36:17.672Z,4.15
2023-05-25T06:38:19.336Z,4.15
2023-05-25T06:42:22.056Z,4.15
2023-05-25T06:44:23.013Z,4.16
2023-05-25T06:48:26.045Z,4.16
2023-05-25T06:52:28.544Z,4.17
2023-05-25T06:54:30.202Z,4.17
2023-05-25T06:56:31.490Z,4.17
2023-05-25T06:58:32.557Z,4.17
2023-05-25T07:04:38.259Z,4.18
2023-05-25T07:06:39.209Z,4.18
2023-05-25T07:10:41.882Z,4.18
2023-05-25T07:14:43.980Z,4.19
2023-05-25T07:20:48.825Z,4.19
2023-05-25T07:24:52.171Z,4.19
2023-05-25T07:26:53.369Z,4.19
2023-05-25T07:30:56.823Z,4.19
2023-05-25T07:34:59.666Z,4.19
2023-05-25T07:37:01.347Z,4.19
2023-05-25T07:41:03.986Z,4.19
2023-05-25T07:47:08.102Z,4.2
2023-05-25T07:53:12.262Z,4.2
2023-05-25T07:57:14.152Z,4.2
2023-05-25T07:57:58.894Z,4.2
2023-05-25T08:02:01.550Z,4.2
2023-05-25T08:04:02.795Z,4.2
2023-05-25T08:08:04.757Z,4.2
2023-05-25T08:12:30.458Z,4.2
2023-05-25T08:14:09.580Z,4.2
2023-05-25T08:18:12.737Z,4.2
2023-05-25T08:24:17.120Z,4.19
2023-05-25T08:30:21.926Z,4.19
2023-05-25T08:34:24.533Z,4.18
2023-05-25T08:40:28.862Z,4.18
2023-05-25T08:44:32.268Z,4.18
2023-05-25T08:46:33.965Z,4.18
2023-05-25T08:50:36.518Z,4.18
2023-05-25T08:54:38.922Z,4.18
2023-05-25T08:56:40.546Z,4.18
2023-05-25T09:00:42.556Z,4.18
2023-05-25T09:06:51.363Z,4.18
2023-05-25T09:12:51.678Z,4.18
2023-05-25T09:16:53.813Z,4.18
2023-05-25T09:22:57.514Z,4.18
2023-05-25T09:27:00.583Z,4.17
2023-05-25T09:29:02.352Z,4.17
2023-05-25T09:33:04.478Z,4.17
2023-05-25T09:37:07.749Z,4.17
2023-05-25T09:39:09.046Z,4.17
2023-05-25T09:41:10.089Z,4.17
2023-05-25T09:47:14.470Z,4.17
2023-05-25T09:49:15.510Z,4.17
2023-05-25T09:53:19.168Z,4.17
2023-05-25T09:55:20.770Z,4.17
2023-05-25T09:57:21.648Z,4.17
2023-05-25T09:59:22.454Z,4.17
2023-05-25T10:05:26.194Z,4.17
2023-05-25T10:11:29.829Z,4.17
2023-05-25T10:15:32.101Z,4.17
2023-05-25T10:21:37.709Z,4.17
2023-05-25T10:25:41.176Z,4.17
2023-05-25T10:27:42.640Z,4.17
2023-05-25T10:31:45.534Z,4.16
2023-05-25T10:36:02.059Z,4.16
2023-05-25T10:37:49.238Z,4.16
2023-05-25T10:39:50.167Z,4.17
2023-05-25T10:47:55.391Z,4.16
2023-05-25T10:53:59.635Z,4.16
2023-05-25T10:58:02.777Z,4.16
2023-05-25T11:04:06.259Z,4.16
2023-05-25T11:08:09.069Z,4.16
2023-05-25T11:10:10.344Z,4.16
2023-05-25T11:14:13.127Z,4.16
2023-05-25T11:18:16.310Z,4.16
2023-05-25T11:20:17.317Z,4.16
2023-05-25T11:24:19.681Z,4.16
2023-05-25T11:30:23.500Z,4.16
2023-05-25T11:36:27.836Z,4.16
2023-05-25T11:40:30.587Z,4.16
2023-05-25T11:46:34.693Z,4.16
2023-05-25T11:52:38.267Z,4.16
2023-05-25T11:56:40.800Z,4.16
2023-05-25T12:02:43.531Z,4.15
2023-05-25T12:06:45.831Z,4.15
2023-05-25T12:08:46.982Z,4.15
2023-05-25T12:12:50.594Z,4.15
2023-05-25T12:16:53.078Z,4.15
2023-05-25T12:18:53.920Z,4.15
2023-05-25T12:22:57.155Z,4.14
2023-05-25T12:29:00.657Z,4.15
2023-05-25T12:35:05.258Z,4.14
2023-05-25T12:39:07.929Z,4.15
2023-05-25T12:45:11.725Z,4.14
2023-05-25T12:49:14.886Z,4.14
2023-05-25T12:51:15.678Z,4.15
2023-05-25T12:55:19.690Z,4.14
2023-05-25T12:59:22.912Z,4.14
2023-05-25T13:01:24.561Z,4.14
2023-05-25T13:05:27.334Z,4.14
2023-05-25T13:11:31.240Z,4.14
2023-05-25T13:13:32.597Z,4.14
2023-05-25T13:17:34.936Z,4.14
2023-05-25T13:21:37.379Z,4.14
2023-05-25T13:27:41.189Z,4.14
2023-05-25T13:29:42.300Z,4.14
2023-05-25T13:31:43.623Z,4.14
2023-05-25T13:37:48.333Z,4.14
2023-05-25T13:39:49.260Z,4.14
2023-05-25T13:41:50.228Z,4.14
2023-05-25T13:43:51.415Z,4.14
2023-05-25T13:47:53.516Z,4.14
2023-05-25T13:53:57.245Z,4.14
2023-05-25T13:57:59.833Z,4.14
2023-05-25T14:00:01.944Z,4.14
2023-05-25T14:02:03.587Z,4.13
2023-05-25T14:04:04.566Z,4.13
2023-05-25T14:10:09.916Z,4.13
2023-05-25T14:12:12.407Z,4.13
2023-05-25T14:16:13.918Z,4.13
2023-05-25T14:20:16.687Z,4.13
2023-05-25T14:26:20.656Z,4.13
2023-05-25T14:30:22.417Z,4.13
2023-05-25T14:32:24.434Z,4.13
2023-05-25T14:36:26.992Z,4.13
2023-05-25T14:40:30.307Z,4.13
2023-05-25T14:42:31.892Z,4.13
2023-05-25T14:43:15.562Z,4.13
2023-05-25T14:47:18.700Z,4.12
2023-05-25T14:53:24.137Z,4.13
2023-05-25T14:55:25.604Z,4.12
2023-05-25T14:57:26.995Z,4.13
2023-05-25T15:03:30.788Z,4.12
2023-05-25T15:07:32.905Z,4.13
2023-05-25T15:09:34.375Z,4.12
2023-05-25T15:13:37.437Z,4.13
2023-05-25T15:17:39.937Z,4.12
2023-05-25T15:19:42.401Z,4.12
2023-05-25T15:23:46.035Z,4.12
2023-05-25T15:29:49.969Z,4.12
2023-05-25T15:35:53.923Z,4.12
2023-05-25T15:39:56.575Z,4.12
2023-05-25T15:46:02.177Z,4.12
2023-05-25T15:50:04.402Z,4.12
2023-05-25T15:52:05.929Z,4.12
2023-05-25T15:56:08.969Z,4.12
2023-05-25T16:02:12.173Z,4.12
2023-05-25T16:08:16.385Z,4.14
2023-05-25T16:12:18.473Z,4.16
2023-05-25T16:18:23.731Z,4.16
2023-05-25T16:22:25.681Z,4.17
2023-05-25T16:24:27.581Z,4.17
2023-05-25T16:28:29.865Z,4.16
2023-05-25T16:32:32.039Z,4.16
2023-05-25T16:34:33.381Z,4.16
2023-05-25T16:38:35.894Z,4.16
2023-05-25T16:42:38.154Z,4.16
2023-05-25T16:44:39.912Z,4.16
2023-05-25T16:48:41.598Z,4.16
2023-05-25T16:50:42.419Z,4.16
2023-05-25T16:54:45.179Z,4.16
2023-05-25T17:00:48.702Z,4.15
2023-05-25T17:06:52.151Z,4.15
2023-05-25T17:08:53.800Z,4.15
2023-05-25T17:16:59.294Z,4.14
2023-05-25T17:21:02.124Z,4.15
2023-05-25T17:23:03.048Z,4.15
2023-05-25T17:27:05.411Z,4.14
2023-05-25T17:31:09.189Z,4.15
2023-05-25T17:33:10.338Z,4.14
2023-05-25T17:37:13.338Z,4.14
2023-05-25T17:43:17.084Z,4.14
2023-05-25T17:49:20.820Z,4.14
2023-05-25T17:53:24.265Z,4.14
2023-05-25T17:59:28.342Z,4.14
2023-05-25T18:03:31.057Z,4.14
2023-05-25T18:05:31.985Z,4.14
2023-05-25T18:09:34.726Z,4.14
2023-05-25T18:13:37.659Z,4.14
2023-05-25T18:15:39.436Z,4.13
2023-05-25T18:19:42.112Z,4.14
2023-05-25T18:25:46.501Z,4.14
2023-05-25T18:31:50.582Z,4.13
2023-05-25T18:35:53.361Z,4.13
2023-05-25T18:41:56.558Z,4.13
2023-05-25T18:48:00.404Z,4.13
2023-05-25T18:52:03.326Z,4.13
2023-05-25T18:56:06.306Z,4.13
2023-05-25T18:58:07.304Z,4.13
2023-05-25T19:02:10.193Z,4.13
2023-05-25T19:06:13.010Z,4.13
2023-05-25T19:08:14.030Z,4.13
2023-05-25T19:12:16.869Z,4.12
2023-05-25T19:14:18.177Z,4.13
2023-05-25T19:16:19.626Z,4.13
2023-05-25T19:18:20.709Z,4.12
2023-05-25T19:24:25.229Z,4.13
2023-05-25T19:26:26.436Z,4.12
2023-05-25T19:30:29.110Z,4.12
2023-05-25T19:34:32.116Z,4.12
2023-05-25T19:40:36.040Z,4.12
2023-05-25T19:44:39.476Z,4.12
2023-05-25T19:46:40.373Z,4.12
2023-05-25T19:50:43.344Z,4.12
2023-05-25T19:54:46.242Z,4.12
2023-05-25T19:56:47.180Z,4.12
2023-05-25T20:00:49.282Z,4.12
2023-05-25T20:06:53.441Z,4.12
2023-05-25T20:12:56.872Z,4.12
2023-05-25T20:17:00.443Z,4.12
2023-05-25T20:23:04.110Z,4.12
2023-05-25T20:27:07.042Z,4.12
2023-05-25T20:29:08.909Z,4.11
2023-05-25T20:33:12.213Z,4.12
2023-05-25T20:37:15.292Z,4.11
2023-05-25T20:39:16.469Z,4.11
2023-05-25T20:43:19.725Z,4.11
2023-05-25T20:49:25.968Z,4.12
2023-05-25T20:55:29.355Z,4.11
2023-05-25T20:59:31.638Z,4.11
2023-05-25T21:05:35.895Z,4.11
2023-05-25T21:09:37.858Z,4.11
2023-05-25T21:11:39.488Z,4.11
2023-05-25T21:15:41.973Z,4.1
2023-05-25T21:19:44.160Z,4.11
2023-05-25T21:21:45.540Z,4.11
2023-05-25T21:25:48.015Z,4.1
2023-05-25T21:28:32.913Z,4.1
2023-05-25T21:32:35.896Z,4.11
2023-05-25T21:36:38.759Z,4.11
2023-05-25T21:42:42.638Z,4.1
2023-05-25T21:48:47.058Z,4.1
2023-05-25T21:52:58.763Z,4.1
2023-05-25T21:58:54.384Z,4.1
2023-05-25T22:02:56.418Z,4.1
2023-05-25T22:04:57.519Z,4.1
2023-05-25T22:09:00.223Z,4.1
2023-05-25T22:13:02.416Z,4.1
2023-05-25T22:15:04.210Z,4.1
2023-05-25T22:19:07.438Z,4.1
2023-05-25T22:25:12.324Z,4.1
2023-05-25T22:31:16.948Z,4.1
2023-05-25T22:35:19.228Z,4.09
2023-05-25T22:41:23.812Z,4.09
2023-05-25T22:45:26.075Z,4.09
2023-05-25T22:47:27.569Z,4.09
2023-05-25T22:51:30.135Z,4.09
2023-05-25T22:55:32.432Z,4.09
2023-05-25T22:57:33.738Z,4.09
2023-05-25T23:01:36.537Z,4.09
2023-05-25T23:05:38.993Z,4.09
2023-05-25T23:07:40.426Z,4.09
2023-05-25T23:11:43.315Z,4.09
2023-05-25T23:13:44.795Z,4.09
2023-05-25T23:17:48.442Z,4.09
2023-05-25T23:23:52.721Z,4.08
2023-05-25T23:29:56.968Z,4.09
2023-05-25T23:33:59.659Z,4.08
2023-05-25T23:40:03.703Z,4.08
2023-05-25T23:44:06.496Z,4.08
2023-05-25T23:50:10.293Z,4.08
2023-05-25T23:54:13.502Z,4.08
2023-05-25T23:56:15.127Z,4.08
